Time;durP1;ratioP1;P1;durP2;ratioP2;P2;SDS_P1;SDS_P2;PMS_P1;PMS_P2;Temp;Humidity;BMP_temperature;BMP_pressure;BME280_temperature;BME280_humidity;BME280_pressure;Samples;Min_cycle;Max_cycle;Signal;HPM_P1;HPM_P2
2022/01/23 00:01:42;;;;;;;29.92;20.63;;;6.50;56.00;;;;;;4996312;28;20034;-70
2022/01/23 00:04:08;;;;;;;29.60;21.33;;;6.50;55.90;;;;;;4996156;28;20038;-72
2022/01/23 00:06:33;;;;;;;32.22;19.25;;;6.50;55.70;;;;;;4996181;28;20077;-70
2022/01/23 00:08:59;;;;;;;32.85;20.50;;;6.50;55.50;;;;;;4995973;28;20440;-70
2022/01/23 00:11:27;;;;;;;29.05;20.70;;;6.50;55.70;;;;;;4996181;28;20031;-70
2022/01/23 00:19:08;;;;;;;24.17;17.13;;;6.50;55.50;;;;;;4995833;28;20049;-69
2022/01/23 00:21:34;;;;;;;24.77;17.73;;;6.50;55.20;;;;;;4995908;28;20026;-70
2022/01/23 00:31:54;;;;;;;23.65;16.63;;;6.30;55.90;;;;;;4995965;28;19960;-68
2022/01/23 00:34:20;;;;;;;25.30;17.25;;;6.40;55.40;;;;;;4995884;28;20427;-69
2022/01/23 00:36:46;;;;;;;22.98;17.05;;;6.40;56.10;;;;;;4995700;28;20026;-71
2022/01/23 00:39:12;;;;;;;24.75;16.38;;;6.40;55.10;;;;;;4995462;28;20034;-70
2022/01/23 00:41:38;;;;;;;27.23;16.05;;;6.30;55.20;;;;;;4995623;28;20026;-68
2022/01/23 00:44:04;;;;;;;22.77;14.50;;;6.30;55.30;;;;;;4995611;28;20019;-68
2022/01/23 00:46:38;;;;;;;22.00;14.82;;;6.30;55.10;;;;;;4995433;28;20060;-69
2022/01/23 00:51:37;;;;;;;22.77;14.52;;;6.30;55.00;;;;;;4995306;28;20030;-71
2022/01/23 00:54:06;;;;;;;22.42;14.68;;;6.30;54.80;;;;;;4995167;28;20561;-70
2022/01/23 00:56:33;;;;;;;24.42;14.45;;;6.30;54.90;;;;;;4995184;28;20030;-72
2022/01/23 00:58:59;;;;;;;19.27;13.13;;;6.30;54.80;;;;;;4995182;28;20042;-74
2022/01/23 01:01:26;;;;;;;23.60;13.77;;;6.30;54.60;;;;;;4994405;28;20041;-70
2022/01/23 01:03:51;;;;;;;21.42;13.65;;;6.30;54.60;;;;;;4995359;28;20479;-71
2022/01/23 01:06:18;;;;;;;20.98;13.05;;;6.30;54.80;;;;;;4995023;28;20162;-68
2022/01/23 01:08:46;;;;;;;18.75;13.18;;;6.30;54.80;;;;;;4994573;28;20030;-69
2022/01/23 01:16:53;;;;;;;19.27;13.68;;;6.20;55.70;;;;;;4975582;28;20109;-69
2022/01/23 01:30:27;;;;;;;22.80;15.85;;;6.00;56.10;;;;;;4994915;28;19995;-70
2022/01/23 01:35:40;;;;;;;24.40;16.70;;;6.00;56.20;;;;;;4994545;28;20468;-70
2022/01/23 01:38:05;;;;;;;21.45;14.82;;;6.00;56.20;;;;;;4994308;28;20391;-70
2022/01/23 01:40:32;;;;;;;26.73;16.10;;;6.00;55.90;;;;;;4994410;28;20026;-69
2022/01/23 01:42:57;;;;;;;26.48;15.68;;;6.00;55.90;;;;;;4994292;28;20108;-70
2022/01/23 01:45:29;;;;;;;23.52;16.80;;;6.00;56.10;;;;;;4994092;28;20370;-70
2022/01/23 01:47:59;;;;;;;21.92;15.63;;;6.00;56.20;;;;;;4994311;28;20058;-69
2022/01/23 01:50:25;;;;;;;22.65;16.35;;;6.00;56.20;;;;;;4980544;28;20120;-69
2022/01/23 01:52:52;;;;;;;25.77;17.63;;;6.00;56.10;;;;;;4974703;28;20089;-68
2022/01/23 01:55:24;;;;;;;26.33;18.77;;;6.10;56.40;;;;;;4974753;28;20472;-69
2022/01/23 01:57:55;;;;;;;31.27;19.53;;;6.00;56.50;;;;;;4989476;28;20037;-71
2022/01/23 02:10:48;;;;;;;24.25;16.60;;;6.00;57.50;;;;;;4974759;28;20038;-69
2022/01/23 02:13:18;;;;;;;26.42;15.68;;;6.00;57.20;;;;;;4974479;28;20034;-69
2022/01/23 02:16:18;;;;;;;22.80;15.57;;;5.90;57.30;;;;;;4974715;28;20034;-69
2022/01/23 02:51:27;;;;;;;17.17;11.52;;;6.10;55.20;;;;;;4993339;28;19917;-72
2022/01/23 02:54:22;;;;;;;29.58;12.85;;;6.00;54.60;;;;;;4993371;28;20033;-71
2022/01/23 02:56:52;;;;;;;17.08;12.82;;;6.00;55.20;;;;;;4993391;28;20027;-72
2022/01/23 03:02:08;;;;;;;20.60;13.25;;;6.00;55.60;;;;;;4993155;28;20037;-70
2022/01/23 03:04:38;;;;;;;23.52;15.15;;;5.90;55.50;;;;;;4993353;28;20042;-69
2022/01/23 03:29:03;;;;;;;20.77;15.85;;;5.50;56.80;;;;;;4999541;28;20041;-70
2022/01/23 03:33:30;;;;;;;22.10;15.27;;;5.30;57.00;;;;;;4999336;28;20038;-69
2022/01/23 03:35:56;;;;;;;21.70;14.90;;;5.30;56.90;;;;;;4999326;28;20084;-70
2022/01/23 03:38:21;;;;;;;22.13;14.85;;;5.20;57.30;;;;;;4999109;28;20034;-71
2022/01/23 03:40:47;;;;;;;19.90;15.18;;;5.20;57.70;;;;;;4999140;28;20460;-70
2022/01/23 03:43:15;;;;;;;24.92;15.48;;;5.10;57.70;;;;;;4999196;28;20030;-69
2022/01/23 03:50:52;;;;;;;20.65;14.57;;;5.00;58.10;;;;;;4999218;28;20120;-70
2022/01/23 03:53:18;;;;;;;22.13;14.45;;;5.00;58.10;;;;;;4999408;28;20368;-69
2022/01/23 03:55:45;;;;;;;21.77;14.77;;;5.00;57.90;;;;;;4999417;28;20022;-70
2022/01/23 03:58:10;;;;;;;21.10;14.25;;;4.90;58.20;;;;;;4997701;28;20034;-69
2022/01/23 04:00:36;;;;;;;21.02;13.30;;;4.80;57.90;;;;;;4999347;28;20033;-71
2022/01/23 04:03:02;;;;;;;18.98;13.77;;;4.70;58.20;;;;;;4999091;28;20103;-68
2022/01/23 04:05:28;;;;;;;22.55;13.68;;;4.70;58.30;;;;;;4999258;28;20553;-69
2022/01/23 04:07:54;;;;;;;20.02;13.65;;;4.80;58.90;;;;;;4998981;28;20519;-70
2022/01/23 04:10:22;;;;;;;21.35;13.27;;;4.80;58.00;;;;;;4999236;28;20030;-69
2022/01/23 04:12:53;;;;;;;20.05;13.43;;;4.80;58.20;;;;;;4999129;28;20318;-70
2022/01/23 04:33:56;;;;;;;13.13;8.80;;;4.70;58.60;;;;;;4998836;28;19913;-71
2022/01/23 05:01:05;;;;;;;;;;;4.90;58.40;;;;;;4995819;28;20114;-69
2022/01/23 05:06:06;;;;;;;16.92;11.35;;;4.80;58.50;;;;;;4995296;28;20031;-69
2022/01/23 05:08:34;;;;;;;16.77;11.68;;;4.90;58.70;;;;;;4994935;28;20106;-70
2022/01/23 05:11:02;;;;;;;15.32;11.07;;;4.80;58.60;;;;;;4994977;28;20041;-69
2022/01/23 05:13:29;;;;;;;16.30;11.13;;;4.80;58.80;;;;;;4994802;28;20029;-71
2022/01/23 05:15:55;;;;;;;15.18;11.25;;;4.70;58.90;;;;;;4994890;28;20034;-72
2022/01/23 05:18:21;;;;;;;15.77;10.60;;;4.70;59.30;;;;;;4994851;28;20046;-74
2022/01/23 05:20:54;;;;;;;17.83;11.57;;;4.70;59.30;;;;;;4994927;28;20022;-73
2022/01/23 05:23:19;;;;;;;17.17;11.00;;;4.70;59.30;;;;;;4994973;28;20045;-74
2022/01/23 05:25:45;;;;;;;17.08;11.20;;;4.70;59.30;;;;;;4994836;28;20018;-71
2022/01/23 05:28:10;;;;;;;16.15;11.18;;;4.80;59.30;;;;;;4994705;28;20112;-71
2022/01/23 05:30:38;;;;;;;19.35;10.88;;;4.80;59.50;;;;;;4994800;28;20033;-73
2022/01/23 05:33:03;;;;;;;16.15;10.43;;;4.70;59.40;;;;;;4994383;28;20479;-70
2022/01/23 05:35:30;;;;;;;15.00;10.18;;;4.70;59.30;;;;;;4994422;28;20081;-72
2022/01/23 05:37:56;;;;;;;15.20;10.20;;;4.70;59.60;;;;;;4994303;28;20054;-74
2022/01/23 05:40:24;;;;;;;18.85;10.70;;;4.70;59.60;;;;;;4994470;28;20511;-72
2022/01/23 05:42:50;;;;;;;14.60;10.30;;;4.60;59.60;;;;;;4994366;28;20022;-73
2022/01/23 05:45:17;;;;;;;16.40;10.27;;;4.70;59.60;;;;;;4994218;28;20036;-73
2022/01/23 05:47:42;;;;;;;15.93;10.13;;;4.70;59.40;;;;;;4993795;28;20034;-71
2022/01/23 05:50:09;;;;;;;16.38;10.18;;;4.70;59.30;;;;;;4993932;28;20113;-71
2022/01/23 05:52:36;;;;;;;14.40;10.13;;;4.70;59.30;;;;;;4994228;28;20380;-72
2022/01/23 05:55:03;;;;;;;16.25;9.55;;;4.70;59.50;;;;;;4994209;28;20069;-71
2022/01/23 05:57:29;;;;;;;16.35;10.55;;;4.70;59.20;;;;;;4994111;28;20030;-70
2022/01/23 05:59:55;;;;;;;14.52;9.10;;;4.70;59.20;;;;;;4994049;28;20156;-72
2022/01/23 06:02:21;;;;;;;15.27;9.80;;;4.70;59.30;;;;;;4994216;28;20037;-72
2022/01/23 06:04:47;;;;;;;13.82;9.77;;;4.70;59.20;;;;;;4994092;28;20038;-72
2022/01/23 06:07:12;;;;;;;15.50;9.80;;;4.70;59.30;;;;;;4994093;28;20076;-73
2022/01/23 06:09:41;;;;;;;17.30;10.00;;;4.60;59.30;;;;;;4993721;28;20392;-70
2022/01/23 06:12:07;;;;;;;15.63;9.55;;;4.60;59.80;;;;;;4993963;28;20023;-70
2022/01/23 06:14:33;;;;;;;17.65;10.98;;;4.50;60.10;;;;;;4993793;28;20027;-73
2022/01/23 06:16:59;;;;;;;14.80;10.32;;;4.40;60.80;;;;;;4993850;28;20494;-72
2022/01/23 06:19:25;;;;;;;18.30;10.60;;;4.40;60.90;;;;;;4992465;28;20560;-73
2022/01/23 06:21:51;;;;;;;17.67;10.25;;;4.30;61.40;;;;;;4993759;28;20041;-69
2022/01/23 06:24:28;;;;;;;15.35;10.30;;;4.30;61.30;;;;;;4993734;28;20038;-70
2022/01/23 06:26:59;;;;;;;18.13;10.20;;;4.30;62.50;;;;;;4993634;28;20049;-69
2022/01/23 06:29:27;;;;;;;17.10;9.68;;;4.30;61.80;;;;;;4993527;28;20048;-72
2022/01/23 06:31:57;;;;;;;15.93;9.90;;;4.20;61.40;;;;;;4992174;28;20033;-68
2022/01/23 06:34:24;;;;;;;15.55;9.70;;;4.20;62.00;;;;;;4993454;28;20495;-69
2022/01/23 06:36:52;;;;;;;14.63;9.98;;;4.20;61.40;;;;;;4993400;28;20065;-70
2022/01/23 06:39:19;;;;;;;14.88;9.15;;;4.20;61.80;;;;;;4992932;28;20042;-70
2022/01/23 06:41:45;;;;;;;15.73;9.43;;;4.20;61.60;;;;;;4993213;28;20069;-71
2022/01/23 06:44:11;;;;;;;14.15;9.20;;;4.30;61.80;;;;;;4993338;28;20447;-69
2022/01/23 06:46:39;;;;;;;13.10;9.02;;;4.40;61.80;;;;;;4993184;28;20029;-69
2022/01/23 06:49:06;;;;;;;15.27;9.15;;;4.40;61.70;;;;;;4992848;28;20046;-71
2022/01/23 06:51:32;;;;;;;13.65;9.00;;;4.40;61.40;;;;;;4993023;28;20030;-69
2022/01/23 06:53:58;;;;;;;12.38;8.65;;;4.50;61.60;;;;;;4993074;28;20026;-69
2022/01/23 06:56:23;;;;;;;14.32;8.65;;;4.50;61.00;;;;;;4993013;28;20026;-69
2022/01/23 06:58:49;;;;;;;13.85;8.82;;;4.50;60.70;;;;;;4992101;28;20045;-73
2022/01/23 07:01:15;;;;;;;12.70;8.65;;;4.50;60.80;;;;;;4988699;28;20034;-69
2022/01/23 07:03:41;;;;;;;11.63;8.68;;;4.50;60.60;;;;;;4992758;28;20395;-69
2022/01/23 07:06:07;;;;;;;12.90;7.90;;;4.60;60.50;;;;;;4992994;28;20029;-68
2022/01/23 07:08:34;;;;;;;11.20;8.27;;;4.70;60.30;;;;;;4992745;28;20103;-68
2022/01/23 07:11:00;;;;;;;14.95;8.45;;;4.70;59.90;;;;;;4989043;28;20019;-66
2022/01/23 07:13:26;;;;;;;12.68;8.18;;;4.80;60.50;;;;;;4991405;28;20384;-67
2022/01/23 07:15:52;;;;;;;13.40;7.35;;;4.90;60.00;;;;;;4991407;28;20080;-68
2022/01/23 07:18:21;;;;;;;11.30;7.90;;;5.00;59.70;;;;;;4987682;28;20170;-67
2022/01/23 07:20:47;;;;;;;11.48;7.28;;;5.20;59.50;;;;;;4993044;28;20097;-68
2022/01/23 07:23:14;;;;;;;10.95;7.70;;;5.20;58.60;;;;;;4992867;28;20040;-67
2022/01/23 07:25:41;;;;;;;12.38;7.45;;;5.40;59.20;;;;;;4992822;28;20067;-69
2022/01/23 07:28:13;;;;;;;11.15;6.95;;;5.50;58.80;;;;;;4992654;28;20097;-69
2022/01/23 07:30:47;;;;;;;11.05;7.20;;;5.60;57.80;;;;;;4992590;28;20392;-71
2022/01/23 07:33:13;;;;;;;15.75;7.35;;;5.70;58.00;;;;;;4992691;28;20030;-68
2022/01/23 07:35:39;;;;;;;11.00;6.43;;;5.70;57.40;;;;;;4992600;28;20034;-70
2022/01/23 07:38:05;;;;;;;13.70;7.18;;;5.80;57.50;;;;;;4992230;28;20030;-69
2022/01/23 07:40:30;;;;;;;10.13;6.28;;;5.80;56.80;;;;;;5002956;28;20129;-71
2022/01/23 07:42:56;;;;;;;12.93;7.10;;;5.90;57.20;;;;;;5011896;28;20452;-73
2022/01/23 07:45:22;;;;;;;11.32;6.80;;;6.00;57.50;;;;;;5010585;28;20507;-68
2022/01/23 07:47:48;;;;;;;12.23;7.03;;;6.20;57.10;;;;;;5012213;28;20387;-68
2022/01/23 07:50:14;;;;;;;10.00;6.60;;;6.30;56.60;;;;;;5012215;28;20499;-69
2022/01/23 07:52:40;;;;;;;10.65;7.15;;;6.30;56.10;;;;;;4993818;28;20506;-68
2022/01/23 07:55:12;;;;;;;11.70;6.70;;;6.40;55.70;;;;;;4981473;28;20026;-70
2022/01/23 07:57:39;;;;;;;11.80;7.32;;;6.30;54.80;;;;;;4992162;28;20114;-69
2022/01/23 08:00:07;;;;;;;10.20;6.95;;;6.30;55.20;;;;;;4979437;28;20046;-70
2022/01/23 08:02:33;;;;;;;11.52;7.05;;;6.30;55.30;;;;;;4988062;28;20491;-67
2022/01/23 08:04:58;;;;;;;13.57;7.70;;;6.40;55.10;;;;;;4981899;28;20026;-67
2022/01/23 08:09:59;;;;;;;14.15;7.53;;;6.30;55.30;;;;;;4992458;28;20368;-70
2022/01/23 08:12:26;;;;;;;12.13;7.30;;;6.30;55.10;;;;;;4995827;28;20058;-66
2022/01/23 08:14:52;;;;;;;15.98;7.85;;;6.30;55.00;;;;;;4996114;28;20034;-68
2022/01/23 08:17:24;;;;;;;11.48;7.10;;;6.30;54.70;;;;;;4995931;28;20403;-68
2022/01/23 08:19:50;;;;;;;10.77;6.72;;;6.30;54.70;;;;;;4995777;28;20037;-68
2022/01/23 08:22:16;;;;;;;10.85;7.00;;;6.20;54.30;;;;;;4995783;28;20102;-69
2022/01/23 08:24:41;;;;;;;10.50;6.57;;;6.20;55.10;;;;;;4995899;28;20122;-67
2022/01/23 08:27:07;;;;;;;11.13;6.60;;;6.20;54.90;;;;;;4995710;28;20133;-68
2022/01/23 08:29:33;;;;;;;13.38;6.53;;;6.20;55.10;;;;;;4995820;28;20499;-69
2022/01/23 08:31:58;;;;;;;10.30;6.18;;;6.30;55.10;;;;;;4998623;28;20053;-66
2022/01/23 08:34:24;;;;;;;12.38;6.88;;;6.40;55.10;;;;;;4995826;28;20026;-67
2022/01/23 08:36:50;;;;;;;13.70;7.75;;;6.40;55.00;;;;;;4996720;28;20038;-68
2022/01/23 08:39:21;;;;;;;12.85;7.95;;;6.50;55.20;;;;;;4994289;28;20046;-67
2022/01/23 08:41:50;;;;;;;12.13;8.07;;;6.40;55.00;;;;;;4996114;28;20031;-68
2022/01/23 08:44:24;;;;;;;11.43;8.07;;;6.30;55.50;;;;;;4995610;28;20030;-68
2022/01/23 08:46:50;;;;;;;12.95;7.90;;;6.30;55.50;;;;;;4995722;28;20069;-69
2022/01/23 08:49:19;;;;;;;13.15;7.88;;;6.40;56.10;;;;;;4995166;28;20530;-67
2022/01/23 08:51:46;;;;;;;14.00;8.18;;;6.40;55.50;;;;;;4994640;28;20034;-69
2022/01/23 08:54:12;;;;;;;18.02;11.07;;;6.40;55.80;;;;;;4993444;28;20026;-70
2022/01/23 08:56:38;;;;;;;22.92;13.40;;;6.50;56.10;;;;;;4995043;28;20490;-70
2022/01/23 08:59:04;;;;;;;14.63;9.40;;;6.60;56.10;;;;;;4995488;28;20072;-69
2022/01/23 09:01:31;;;;;;;13.18;8.13;;;6.60;56.10;;;;;;4995479;28;20392;-70
2022/01/23 09:03:56;;;;;;;11.82;7.55;;;6.80;55.90;;;;;;4995338;28;20033;-68
2022/01/23 09:06:23;;;;;;;13.48;8.05;;;6.90;55.90;;;;;;4995578;28;20034;-69
2022/01/23 09:08:51;;;;;;;12.85;8.30;;;6.90;55.30;;;;;;4995398;28;20128;-70
2022/01/23 09:14:06;;;;;;;13.40;8.50;;;7.10;55.70;;;;;;4995144;28;20038;-70
2022/01/23 09:16:38;;;;;;;17.55;8.60;;;7.20;55.10;;;;;;4994988;28;20049;-71
2022/01/23 09:19:05;;;;;;;10.77;7.18;;;7.30;55.00;;;;;;4994799;28;20109;-69
2022/01/23 09:21:31;;;;;;;12.82;7.22;;;7.40;55.00;;;;;;4994883;28;20033;-70
2022/01/23 09:23:56;;;;;;;12.32;7.50;;;7.50;54.30;;;;;;4994589;28;20439;-70
2022/01/23 09:26:23;;;;;;;15.38;7.80;;;7.60;54.10;;;;;;4995066;28;20030;-69
2022/01/23 09:28:53;;;;;;;12.32;8.45;;;7.70;54.10;;;;;;4994748;28;20022;-69
2022/01/23 09:31:48;;;;;;;17.02;9.32;;;7.80;54.10;;;;;;4994819;28;20106;-70
2022/01/23 09:34:07;;;;;;;15.10;8.73;;;7.90;54.80;;;;;;4994451;28;20120;-69
2022/01/23 09:36:33;;;;;;;16.98;8.52;;;8.10;54.20;;;;;;4994856;28;20077;-73
2022/01/23 09:39:02;;;;;;;13.68;8.88;;;8.20;53.90;;;;;;4994647;28;20034;-69
2022/01/23 09:41:31;;;;;;;16.38;8.85;;;8.30;54.90;;;;;;4994427;28;20502;-72
2022/01/23 09:44:00;;;;;;;19.23;9.27;;;8.40;53.40;;;;;;4994552;28;20109;-71
2022/01/23 09:46:25;;;;;;;16.35;9.52;;;8.50;53.40;;;;;;4994308;28;20467;-69
2022/01/23 09:48:52;;;;;;;17.60;9.30;;;8.60;53.50;;;;;;4992703;28;20053;-69
2022/01/23 09:51:24;;;;;;;15.20;9.82;;;8.70;53.10;;;;;;4994228;28;20084;-71
2022/01/23 09:53:53;;;;;;;14.50;9.48;;;8.80;54.00;;;;;;4994367;28;20015;-74
2022/01/23 09:56:29;;;;;;;15.32;9.90;;;8.90;53.00;;;;;;4994484;28;20504;-69
2022/01/23 09:58:55;;;;;;;12.70;8.70;;;9.00;53.20;;;;;;4993893;28;20046;-72
2022/01/23 10:01:23;;;;;;;15.07;8.63;;;9.10;53.00;;;;;;4994182;28;20462;-69
2022/01/23 10:03:49;;;;;;;14.25;9.13;;;9.20;53.20;;;;;;4994201;28;20030;-70
2022/01/23 10:06:15;;;;;;;15.15;9.02;;;9.30;53.10;;;;;;4992277;28;20026;-70
2022/01/23 10:08:43;;;;;;;13.57;8.93;;;9.40;53.00;;;;;;4993990;28;20096;-69
2022/01/23 10:11:11;;;;;;;28.83;18.25;;;9.50;53.00;;;;;;4993687;28;20034;-72
2022/01/23 10:13:39;;;;;;;18.90;11.73;;;9.70;53.20;;;;;;4993711;28;20387;-70
2022/01/23 10:16:04;;;;;;;16.05;8.80;;;9.80;53.10;;;;;;4993771;28;20105;-72
2022/01/23 10:18:31;;;;;;;13.43;8.52;;;9.90;53.10;;;;;;5008856;28;20121;-70
2022/01/23 10:20:57;;;;;;;13.90;8.43;;;10.00;51.70;;;;;;4993529;28;20050;-71
2022/01/23 10:23:24;;;;;;;15.95;9.38;;;10.00;51.40;;;;;;4993570;28;20034;-70
2022/01/23 10:25:52;;;;;;;14.57;8.85;;;10.20;52.20;;;;;;4993344;28;20018;-69
2022/01/23 10:28:21;;;;;;;16.27;9.82;;;10.30;51.20;;;;;;4993342;28;20089;-71
2022/01/23 10:30:54;;;;;;;16.10;10.00;;;10.40;51.50;;;;;;4993356;28;20114;-70
2022/01/23 10:33:23;;;;;;;12.55;8.55;;;10.50;51.00;;;;;;4992843;28;20034;-71
2022/01/23 10:36:06;;;;;;;13.65;9.07;;;10.60;50.80;;;;;;4992952;28;20369;-70
2022/01/23 10:38:52;;;;;;;13.70;9.10;;;10.70;50.70;;;;;;4993202;28;20180;-72
2022/01/23 10:41:31;;;;;;;13.85;8.77;;;10.80;50.60;;;;;;4992584;28;20033;-69
2022/01/23 10:49:57;;;;;;;14.55;8.23;;;11.00;50.50;;;;;;4992848;28;20050;-70
2022/01/23 10:52:47;;;;;;;18.33;8.70;;;11.10;50.50;;;;;;4993185;28;20053;-71
2022/01/23 10:55:13;;;;;;;12.43;8.77;;;11.20;50.50;;;;;;4992882;28;20121;-70
2022/01/23 10:57:44;;;;;;;17.48;9.15;;;11.30;50.60;;;;;;4992667;28;20105;-69
2022/01/23 11:00:25;;;;;;;11.93;8.27;;;11.30;50.70;;;;;;4992724;28;20504;-69
2022/01/23 11:02:52;;;;;;;14.27;8.82;;;11.40;50.80;;;;;;4992443;28;20037;-71
2022/01/23 11:05:19;;;;;;;16.02;9.50;;;11.50;50.90;;;;;;4992689;28;20085;-71
2022/01/23 11:07:47;;;;;;;14.27;8.82;;;11.50;51.10;;;;;;4992783;28;20562;-70
2022/01/23 11:10:18;;;;;;;13.85;6.85;;;11.60;51.20;;;;;;5007667;28;20053;-71
2022/01/23 11:18:15;;;;;;;10.90;6.60;;;11.80;52.30;;;;;;4992158;28;20380;-73
2022/01/23 11:20:43;;;;;;;10.65;6.70;;;12.00;52.80;;;;;;4992562;28;20125;-74
2022/01/23 11:23:22;;;;;;;12.77;7.22;;;12.10;52.80;;;;;;4992411;28;20163;-69
2022/01/23 11:25:57;;;;;;;11.30;6.82;;;12.20;53.10;;;;;;4992292;28;20468;-73
2022/01/23 11:28:55;;;;;;;12.93;6.78;;;12.30;53.00;;;;;;4992474;28;20104;-68
2022/01/23 11:31:23;;;;;;;14.02;8.30;;;12.30;53.00;;;;;;5012750;28;20360;-71
2022/01/23 11:33:51;;;;;;;15.05;9.93;;;12.40;53.10;;;;;;4992641;28;20437;-73
2022/01/23 11:36:18;;;;;;;11.77;7.53;;;12.50;53.00;;;;;;4992407;28;20459;-72
2022/01/23 11:38:46;;;;;;;21.70;13.88;;;12.60;52.60;;;;;;4992368;28;20054;-68
2022/01/23 11:55:35;;;;;;;8.90;5.03;;;13.00;51.20;;;;;;5013634;28;20447;-71
2022/01/23 11:58:02;;;;;;;11.18;6.97;;;13.10;51.10;;;;;;5013134;28;20030;-72
2022/01/23 12:00:34;;;;;;;9.85;5.80;;;13.20;50.90;;;;;;5004607;28;20460;-70
2022/01/23 12:03:20;;;;;;;8.63;5.25;;;13.30;50.70;;;;;;4996232;28;20109;-71
2022/01/23 12:06:10;;;;;;;9.23;5.63;;;13.30;50.40;;;;;;4994331;28;20034;-72
2022/01/23 12:08:36;;;;;;;13.40;5.80;;;13.40;49.90;;;;;;4995942;28;20018;-69
2022/01/23 12:17:00;;;;;;;9.80;5.05;;;13.60;50.40;;;;;;4995609;28;20468;-75
2022/01/23 12:19:28;;;;;;;10.95;5.90;;;13.70;50.50;;;;;;4993992;28;20034;-77
2022/01/23 12:21:58;;;;;;;8.25;5.53;;;13.70;49.10;;;;;;4995918;28;20029;-70
2022/01/23 12:24:25;;;;;;;7.63;5.13;;;13.70;48.60;;;;;;4995413;28;20129;-70
2022/01/23 12:27:11;;;;;;;10.93;5.68;;;13.60;49.00;;;;;;4995961;28;20627;-77
2022/01/23 12:29:37;;;;;;;11.00;6.07;;;13.60;49.30;;;;;;4995770;28;20387;-70
2022/01/23 12:32:27;;;;;;;8.48;5.40;;;13.70;49.60;;;;;;4995778;28;20031;-73
2022/01/23 12:34:56;;;;;;;11.02;6.50;;;13.80;49.50;;;;;;4995837;28;20057;-73
2022/01/23 12:37:22;;;;;;;8.50;5.32;;;13.80;49.10;;;;;;4995881;28;20038;-69
2022/01/23 12:40:40;;;;;;;10.13;5.57;;;13.80;49.20;;;;;;4995129;28;20030;-70
2022/01/23 12:43:16;;;;;;;9.75;6.32;;;13.80;50.10;;;;;;5011883;28;20030;-71
2022/01/23 12:45:44;;;;;;;9.38;5.65;;;13.90;49.10;;;;;;4977103;28;20043;-71
2022/01/23 12:48:36;;;;;;;8.40;5.13;;;13.90;48.70;;;;;;4976165;28;20035;-70
2022/01/23 12:51:26;;;;;;;9.25;5.40;;;14.00;50.20;;;;;;4977936;28;20083;-69
2022/01/23 12:53:51;;;;;;;9.70;5.05;;;14.00;48.70;;;;;;4975621;28;20109;-71
2022/01/23 12:56:41;;;;;;;10.35;5.30;;;14.10;48.60;;;;;;4975696;28;20529;-71
2022/01/23 12:59:11;;;;;;;12.80;7.88;;;14.10;48.50;;;;;;4981395;28;20033;-71
2022/01/23 13:01:42;;;;;;;12.65;6.45;;;14.20;49.30;;;;;;4978681;28;20030;-75
2022/01/23 13:04:08;;;;;;;9.15;6.22;;;14.20;48.10;;;;;;4975455;28;20464;-65
2022/01/23 13:06:54;;;;;;;9.15;5.68;;;14.20;48.80;;;;;;4975222;28;20025;-69
2022/01/23 13:14:45;;;;;;;11.48;7.60;;;14.40;50.60;;;;;;4994181;28;20034;-70
2022/01/23 13:17:40;;;;;;;9.85;6.00;;;14.50;50.10;;;;;;4993859;28;20113;-66
2022/01/23 13:30:54;;;;;;;11.07;6.88;;;14.40;47.80;;;;;;4994453;28;20112;-70
2022/01/23 13:33:22;;;;;;;20.98;12.60;;;14.50;48.20;;;;;;4994287;28;20089;-67
2022/01/23 13:35:53;;;;;;;19.02;12.90;;;14.50;48.10;;;;;;4994433;28;20018;-69
2022/01/23 13:38:21;;;;;;;18.27;8.98;;;14.50;48.10;;;;;;4994373;28;20436;-75
2022/01/23 13:40:57;;;;;;;9.77;6.93;;;14.50;48.20;;;;;;4994495;28;20534;-69
2022/01/23 14:02:39;;;;;;;11.00;6.85;;;14.50;47.90;;;;;;4990588;28;20480;-67
2022/01/23 14:05:13;;;;;;;;;;;14.50;47.70;;;;;;4974976;28;20053;-68
2022/01/23 14:07:50;;;;;;;9.25;4.88;;;14.50;49.00;;;;;;4975256;28;19946;-67
2022/01/23 14:10:22;;;;;;;15.80;5.82;;;14.40;48.80;;;;;;4994497;28;20030;-67
2022/01/23 14:12:50;;;;;;;9.27;6.00;;;14.30;47.60;;;;;;4993642;28;20496;-67
2022/01/23 14:15:22;;;;;;;18.45;11.82;;;14.40;47.80;;;;;;4996853;28;20029;-67
2022/01/23 14:18:19;;;;;;;12.02;7.50;;;14.50;48.70;;;;;;4995192;28;20102;-67
2022/01/23 14:21:01;;;;;;;8.55;5.55;;;14.60;47.90;;;;;;4998783;28;20054;-69
2022/01/23 14:23:28;;;;;;;10.48;5.70;;;14.60;49.00;;;;;;4993988;28;20014;-65
2022/01/23 14:25:57;;;;;;;8.55;4.85;;;14.60;47.80;;;;;;4994352;28;20044;-68
2022/01/23 14:28:28;;;;;;;10.50;4.93;;;14.60;47.80;;;;;;4993524;28;20033;-65
2022/01/23 14:30:58;;;;;;;9.20;5.30;;;14.50;47.80;;;;;;4993464;28;20078;-65
2022/01/23 14:33:33;;;;;;;9.27;5.57;;;14.50;47.90;;;;;;4993417;28;20480;-65
2022/01/23 14:36:13;;;;;;;9.35;4.63;;;14.50;48.00;;;;;;4993085;28;20106;-68
2022/01/23 14:38:39;;;;;;;6.22;3.95;;;14.40;47.50;;;;;;4993052;28;20109;-70
2022/01/23 14:41:09;;;;;;;7.40;4.18;;;14.30;47.60;;;;;;4995378;28;20476;-70
2022/01/23 14:43:39;;;;;;;7.53;4.70;;;14.20;47.10;;;;;;4992985;28;20440;-70
2022/01/23 14:46:08;;;;;;;7.55;4.40;;;14.20;47.00;;;;;;4992930;28;20033;-74
2022/01/23 14:48:44;;;;;;;7.88;4.22;;;14.20;47.10;;;;;;4992826;28;20037;-69
2022/01/23 14:51:10;;;;;;;7.28;4.25;;;14.10;47.20;;;;;;4992955;28;20050;-71
2022/01/23 14:53:39;;;;;;;6.60;4.55;;;14.10;47.20;;;;;;4992701;28;20412;-70
2022/01/23 14:56:08;;;;;;;7.68;4.70;;;14.10;47.80;;;;;;4992444;28;20514;-69
2022/01/23 14:58:34;;;;;;;8.52;4.20;;;14.00;47.80;;;;;;4993706;28;20523;-69
2022/01/23 15:01:02;;;;;;;9.32;3.95;;;14.00;47.80;;;;;;5009569;28;20034;-70
2022/01/23 15:03:30;;;;;;;7.78;4.47;;;13.90;47.40;;;;;;5011015;28;20026;-71
2022/01/23 15:05:56;;;;;;;11.75;4.53;;;13.90;47.40;;;;;;5012293;28;20055;-71
2022/01/23 15:08:24;;;;;;;9.23;4.55;;;13.80;47.70;;;;;;5012151;28;20474;-69
2022/01/23 15:10:55;;;;;;;7.68;4.65;;;13.80;47.50;;;;;;5011856;28;20045;-70
2022/01/23 15:13:22;;;;;;;7.35;4.15;;;13.70;47.50;;;;;;5012285;28;20034;-70
2022/01/23 15:15:52;;;;;;;8.82;4.75;;;13.70;47.90;;;;;;5012235;28;20011;-70
2022/01/23 15:18:18;;;;;;;6.45;4.25;;;13.70;49.00;;;;;;5012035;28;20026;-70
2022/01/23 15:20:44;;;;;;;7.40;3.92;;;13.60;47.90;;;;;;5011738;28;20105;-70
2022/01/23 15:23:12;;;;;;;9.13;4.35;;;13.60;48.20;;;;;;5012187;28;20491;-71
2022/01/23 15:25:38;;;;;;;10.70;4.25;;;13.60;48.30;;;;;;5012029;28;20040;-73
2022/01/23 15:28:05;;;;;;;9.95;4.20;;;13.60;48.80;;;;;;5012512;28;20141;-69
2022/01/23 15:30:31;;;;;;;12.45;6.57;;;13.50;48.70;;;;;;5012393;28;20364;-70
2022/01/23 15:32:57;;;;;;;12.38;5.47;;;13.50;49.20;;;;;;5012249;28;20072;-70
2022/01/23 15:35:25;;;;;;;9.68;5.35;;;13.50;49.50;;;;;;5010929;28;20053;-70
2022/01/23 15:37:52;;;;;;;7.80;4.47;;;13.40;50.30;;;;;;5011823;28;20022;-71
2022/01/23 15:40:21;;;;;;;9.77;5.10;;;13.40;50.00;;;;;;5011660;28;20078;-69
2022/01/23 15:42:50;;;;;;;8.55;5.25;;;13.30;50.40;;;;;;5011915;28;20029;-74
2022/01/23 15:45:17;;;;;;;8.07;4.35;;;13.30;50.40;;;;;;5011786;28;20026;-73
2022/01/23 15:47:43;;;;;;;9.80;4.97;;;13.30;50.70;;;;;;5011739;28;20022;-72
2022/01/23 15:50:13;;;;;;;7.85;4.20;;;13.20;51.10;;;;;;5011556;28;20419;-72
2022/01/23 15:52:38;;;;;;;8.32;4.60;;;13.20;51.70;;;;;;5011970;28;20077;-71
2022/01/23 15:55:09;;;;;;;9.27;4.45;;;13.10;51.60;;;;;;5010245;28;20057;-71
2022/01/23 15:57:35;;;;;;;10.10;4.32;;;13.00;51.70;;;;;;5011576;28;20481;-69
2022/01/23 16:00:01;;;;;;;8.95;4.38;;;12.90;51.90;;;;;;5011526;28;20079;-72
2022/01/23 16:02:27;;;;;;;9.90;4.43;;;12.90;52.20;;;;;;5011543;28;20407;-70
2022/01/23 16:04:53;;;;;;;8.73;4.47;;;12.80;52.50;;;;;;5010650;28;20045;-71
2022/01/23 16:07:18;;;;;;;7.53;4.78;;;12.70;52.80;;;;;;5011615;28;20026;-69
2022/01/23 16:09:45;;;;;;;10.38;5.25;;;12.60;53.10;;;;;;5010321;28;20523;-71
2022/01/23 16:12:13;;;;;;;9.90;5.20;;;12.50;53.20;;;;;;5011606;28;20018;-68
2022/01/23 16:14:39;;;;;;;10.40;5.15;;;12.50;53.70;;;;;;5011657;28;20053;-72
2022/01/23 16:17:06;;;;;;;10.02;5.10;;;12.40;53.80;;;;;;5008349;28;20026;-72
2022/01/23 16:19:32;;;;;;;10.88;4.93;;;12.30;53.90;;;;;;5000959;28;20080;-69
2022/01/23 16:21:58;;;;;;;15.00;7.57;;;12.30;54.30;;;;;;4992621;28;20026;-72
2022/01/23 16:24:25;;;;;;;10.95;5.82;;;12.30;54.50;;;;;;4992018;28;20029;-71
2022/01/23 16:26:52;;;;;;;10.55;5.55;;;12.20;54.80;;;;;;4991378;28;20022;-69
2022/01/23 16:29:21;;;;;;;10.80;5.88;;;12.20;54.80;;;;;;4991607;28;20030;-71
2022/01/23 16:31:47;;;;;;;12.68;5.97;;;12.10;54.90;;;;;;4993015;28;20476;-69
2022/01/23 16:34:12;;;;;;;8.75;5.30;;;12.10;55.40;;;;;;4995040;28;20035;-72
2022/01/23 16:36:38;;;;;;;10.88;5.45;;;12.00;56.00;;;;;;4994964;28;20025;-69
2022/01/23 16:39:05;;;;;;;11.23;5.68;;;12.00;55.90;;;;;;4994863;28;20502;-72
2022/01/23 16:41:31;;;;;;;9.63;5.35;;;12.00;56.10;;;;;;4994988;28;20018;-69